sensor_id;sensor_type;location;lat;lon;timestamp;pressure;altitude;pressure_sealevel;temperature;humidity
24962;BME280;12992;50.884;13.668;2023-05-09T00:01:32;97841.47;;;8.41;80.22
24962;BME280;12992;50.884;13.668;2023-05-09T00:03:58;97846.41;;;8.44;79.37
24962;BME280;12992;50.884;13.668;2023-05-09T00:06:24;97851.50;;;8.40;80.32
24962;BME280;12992;50.884;13.668;2023-05-09T00:08:53;97850.94;;;8.50;78.01
24962;BME280;12992;50.884;13.668;2023-05-09T00:11:19;97849.28;;;8.49;78.10
24962;BME280;12992;50.884;13.668;2023-05-09T00:13:46;97832.53;;;8.34;79.46
24962;BME280;12992;50.884;13.668;2023-05-09T00:16:12;97839.56;;;8.41;78.45
24962;BME280;12992;50.884;13.668;2023-05-09T00:18:38;97832.16;;;8.30;81.48
24962;BME280;12992;50.884;13.668;2023-05-09T00:21:06;97837.81;;;8.29;80.28
24962;BME280;12992;50.884;13.668;2023-05-09T00:23:32;97827.16;;;8.15;82.46
24962;BME280;12992;50.884;13.668;2023-05-09T00:25:58;97830.81;;;8.21;81.40
24962;BME280;12992;50.884;13.668;2023-05-09T00:28:23;97834.69;;;8.13;82.01
24962;BME280;12992;50.884;13.668;2023-05-09T00:30:48;97828.03;;;8.09;82.42
24962;BME280;12992;50.884;13.668;2023-05-09T00:33:14;97819.53;;;8.06;81.01
24962;BME280;12992;50.884;13.668;2023-05-09T00:35:39;97808.19;;;7.97;82.77
24962;BME280;12992;50.884;13.668;2023-05-09T00:38:05;97825.19;;;8.04;83.15
24962;BME280;12992;50.884;13.668;2023-05-09T00:40:30;97829.94;;;8.09;80.63
24962;BME280;12992;50.884;13.668;2023-05-09T00:42:58;97828.44;;;8.13;79.93
24962;BME280;12992;50.884;13.668;2023-05-09T00:45:23;97830.91;;;8.14;80.37
24962;BME280;12992;50.884;13.668;2023-05-09T00:47:49;97820.06;;;8.14;78.54
24962;BME280;12992;50.884;13.668;2023-05-09T00:50:14;97810.13;;;8.08;79.88
24962;BME280;12992;50.884;13.668;2023-05-09T00:52:40;97817.66;;;8.06;81.92
24962;BME280;12992;50.884;13.668;2023-05-09T00:55:06;97815.38;;;8.03;81.09
24962;BME280;12992;50.884;13.668;2023-05-09T00:57:32;97808.31;;;7.84;87.33
24962;BME280;12992;50.884;13.668;2023-05-09T00:59:59;97800.13;;;7.72;86.24
24962;BME280;12992;50.884;13.668;2023-05-09T01:02:24;97808.31;;;7.84;82.02
24962;BME280;12992;50.884;13.668;2023-05-09T01:04:51;97815.50;;;7.78;87.62
24962;BME280;12992;50.884;13.668;2023-05-09T01:07:42;97792.03;;;7.47;94.75
24962;BME280;12992;50.884;13.668;2023-05-09T01:10:15;97817.28;;;7.66;85.61
24962;BME280;12992;50.884;13.668;2023-05-09T01:12:58;97801.84;;;7.66;85.28
24962;BME280;12992;50.884;13.668;2023-05-09T01:15:38;97814.44;;;7.79;81.48
24962;BME280;12992;50.884;13.668;2023-05-09T01:18:14;97810.66;;;7.80;81.65
24962;BME280;12992;50.884;13.668;2023-05-09T01:20:50;97792.50;;;7.81;80.60
24962;BME280;12992;50.884;13.668;2023-05-09T01:31:38;97795.50;;;7.91;78.86
24962;BME280;12992;50.884;13.668;2023-05-09T01:34:05;97788.28;;;7.85;81.00
24962;BME280;12992;50.884;13.668;2023-05-09T01:36:33;97792.63;;;7.86;80.34
24962;BME280;12992;50.884;13.668;2023-05-09T01:39:01;97784.50;;;7.86;78.79
24962;BME280;12992;50.884;13.668;2023-05-09T01:41:30;97778.78;;;7.76;81.11
24962;BME280;12992;50.884;13.668;2023-05-09T01:43:58;97782.31;;;7.76;80.29
24962;BME280;12992;50.884;13.668;2023-05-09T01:46:27;97780.59;;;7.82;79.17
24962;BME280;12992;50.884;13.668;2023-05-09T01:48:53;97766.47;;;7.61;86.30
24962;BME280;12992;50.884;13.668;2023-05-09T01:51:19;97779.72;;;7.70;82.75
24962;BME280;12992;50.884;13.668;2023-05-09T01:53:47;97789.34;;;7.65;83.81
24962;BME280;12992;50.884;13.668;2023-05-09T01:56:13;97793.19;;;7.76;80.05
24962;BME280;12992;50.884;13.668;2023-05-09T01:58:39;97783.78;;;7.79;78.91
24962;BME280;12992;50.884;13.668;2023-05-09T02:01:06;97782.94;;;7.78;80.07
24962;BME280;12992;50.884;13.668;2023-05-09T02:03:33;97786.25;;;7.80;79.08
24962;BME280;12992;50.884;13.668;2023-05-09T02:06:00;97771.34;;;7.71;79.57
24962;BME280;12992;50.884;13.668;2023-05-09T02:08:28;97763.28;;;7.64;80.29
24962;BME280;12992;50.884;13.668;2023-05-09T02:10:53;97760.13;;;7.49;84.02
24962;BME280;12992;50.884;13.668;2023-05-09T02:13:19;97760.06;;;7.56;78.66
24962;BME280;12992;50.884;13.668;2023-05-09T02:15:45;97741.31;;;7.36;84.61
24962;BME280;12992;50.884;13.668;2023-05-09T02:18:11;97753.97;;;7.42;79.04
24962;BME280;12992;50.884;13.668;2023-05-09T02:20:39;97742.66;;;7.45;76.93
24962;BME280;12992;50.884;13.668;2023-05-09T02:23:04;97739.97;;;7.45;75.95
24962;BME280;12992;50.884;13.668;2023-05-09T02:25:31;97725.81;;;7.25;82.34
24962;BME280;12992;50.884;13.668;2023-05-09T02:27:58;97731.66;;;7.22;80.77
24962;BME280;12992;50.884;13.668;2023-05-09T02:30:25;97747.56;;;7.36;74.92
24962;BME280;12992;50.884;13.668;2023-05-09T02:32:55;97732.13;;;7.37;77.83
24962;BME280;12992;50.884;13.668;2023-05-09T02:35:23;97729.03;;;7.33;76.71
24962;BME280;12992;50.884;13.668;2023-05-09T02:37:50;97722.47;;;7.23;80.98
24962;BME280;12992;50.884;13.668;2023-05-09T02:40:17;97718.28;;;7.27;75.69
24962;BME280;12992;50.884;13.668;2023-05-09T02:42:43;97728.06;;;7.28;74.97
24962;BME280;12992;50.884;13.668;2023-05-09T02:45:09;97732.72;;;7.39;72.72
24962;BME280;12992;50.884;13.668;2023-05-09T02:47:35;97755.00;;;7.41;74.90
24962;BME280;12992;50.884;13.668;2023-05-09T02:50:00;97733.00;;;7.31;74.99
24962;BME280;12992;50.884;13.668;2023-05-09T02:52:26;97697.78;;;6.94;81.36
24962;BME280;12992;50.884;13.668;2023-05-09T02:54:51;97716.03;;;6.80;86.39
24962;BME280;12992;50.884;13.668;2023-05-09T02:57:16;97706.75;;;6.45;93.13
24962;BME280;12992;50.884;13.668;2023-05-09T02:59:42;97702.78;;;6.16;96.01
24962;BME280;12992;50.884;13.668;2023-05-09T03:02:07;97709.75;;;5.99;99.48
24962;BME280;12992;50.884;13.668;2023-05-09T03:04:32;97711.25;;;5.81;100.00
24962;BME280;12992;50.884;13.668;2023-05-09T03:06:58;97713.00;;;5.69;100.00
24962;BME280;12992;50.884;13.668;2023-05-09T03:09:29;97711.38;;;5.55;100.00
24962;BME280;12992;50.884;13.668;2023-05-09T03:11:54;97699.00;;;5.34;100.00
24962;BME280;12992;50.884;13.668;2023-05-09T03:14:21;97711.09;;;5.31;100.00
24962;BME280;12992;50.884;13.668;2023-05-09T03:16:46;97716.28;;;5.26;100.00
24962;BME280;12992;50.884;13.668;2023-05-09T03:19:20;97709.25;;;5.12;100.00
24962;BME280;12992;50.884;13.668;2023-05-09T03:21:45;97722.56;;;5.00;100.00
24962;BME280;12992;50.884;13.668;2023-05-09T03:24:10;97707.25;;;4.88;100.00
24962;BME280;12992;50.884;13.668;2023-05-09T03:26:36;97717.38;;;4.86;100.00
24962;BME280;12992;50.884;13.668;2023-05-09T03:29:02;97721.97;;;4.72;100.00
24962;BME280;12992;50.884;13.668;2023-05-09T03:31:27;97724.47;;;4.80;100.00
24962;BME280;12992;50.884;13.668;2023-05-09T03:33:52;97714.50;;;4.74;100.00
24962;BME280;12992;50.884;13.668;2023-05-09T03:36:18;97717.41;;;4.66;100.00
24962;BME280;12992;50.884;13.668;2023-05-09T03:38:43;97720.94;;;4.66;100.00
24962;BME280;12992;50.884;13.668;2023-05-09T03:41:09;97717.00;;;4.69;100.00
24962;BME280;12992;50.884;13.668;2023-05-09T03:43:34;97706.00;;;4.57;100.00
24962;BME280;12992;50.884;13.668;2023-05-09T03:46:00;97701.47;;;4.51;100.00
24962;BME280;12992;50.884;13.668;2023-05-09T03:48:25;97698.53;;;4.39;100.00
24962;BME280;12992;50.884;13.668;2023-05-09T03:50:51;97703.91;;;4.33;100.00
24962;BME280;12992;50.884;13.668;2023-05-09T03:53:17;97711.63;;;4.42;100.00
24962;BME280;12992;50.884;13.668;2023-05-09T03:55:45;97709.97;;;4.35;100.00
24962;BME280;12992;50.884;13.668;2023-05-09T03:58:12;97715.13;;;4.36;100.00
24962;BME280;12992;50.884;13.668;2023-05-09T04:00:40;97718.03;;;4.35;100.00
24962;BME280;12992;50.884;13.668;2023-05-09T04:03:11;97746.44;;;4.50;100.00
24962;BME280;12992;50.884;13.668;2023-05-09T04:05:40;97751.44;;;4.53;100.00
24962;BME280;12992;50.884;13.668;2023-05-09T04:08:11;97748.34;;;4.63;100.00
24962;BME280;12992;50.884;13.668;2023-05-09T04:10:36;97762.44;;;4.85;100.00
24962;BME280;12992;50.884;13.668;2023-05-09T04:13:02;97770.94;;;5.02;100.00
24962;BME280;12992;50.884;13.668;2023-05-09T04:15:28;97771.75;;;5.09;100.00
24962;BME280;12992;50.884;13.668;2023-05-09T04:17:55;97772.59;;;5.16;100.00
24962;BME280;12992;50.884;13.668;2023-05-09T04:20:21;97774.41;;;5.29;100.00
24962;BME280;12992;50.884;13.668;2023-05-09T04:22:46;97773.38;;;5.36;100.00
24962;BME280;12992;50.884;13.668;2023-05-09T04:25:11;97762.16;;;5.39;100.00
24962;BME280;12992;50.884;13.668;2023-05-09T04:27:39;97773.34;;;5.50;100.00
24962;BME280;12992;50.884;13.668;2023-05-09T04:30:05;97766.22;;;5.62;100.00
24962;BME280;12992;50.884;13.668;2023-05-09T04:32:31;97773.66;;;5.80;100.00
24962;BME280;12992;50.884;13.668;2023-05-09T04:34:56;97768.81;;;5.88;100.00
24962;BME280;12992;50.884;13.668;2023-05-09T04:37:26;97774.38;;;6.07;100.00
24962;BME280;12992;50.884;13.668;2023-05-09T04:39:52;97761.13;;;6.62;88.14
24962;BME280;12992;50.884;13.668;2023-05-09T04:42:23;97774.72;;;6.80;92.17
24962;BME280;12992;50.884;13.668;2023-05-09T04:44:49;97766.13;;;7.33;79.48
24962;BME280;12992;50.884;13.668;2023-05-09T04:47:14;97767.94;;;7.57;82.80
24962;BME280;12992;50.884;13.668;2023-05-09T04:49:39;97760.72;;;7.88;78.39
24962;BME280;12992;50.884;13.668;2023-05-09T04:52:05;97766.25;;;8.11;83.24
24962;BME280;12992;50.884;13.668;2023-05-09T04:54:31;97746.66;;;8.09;84.25
24962;BME280;12992;50.884;13.668;2023-05-09T04:56:57;97731.72;;;7.88;88.20
24962;BME280;12992;50.884;13.668;2023-05-09T04:59:23;97751.19;;;8.15;84.01
24962;BME280;12992;50.884;13.668;2023-05-09T05:01:48;97749.63;;;8.38;80.12
24962;BME280;12992;50.884;13.668;2023-05-09T05:04:14;97751.09;;;8.52;83.55
24962;BME280;12992;50.884;13.668;2023-05-09T05:06:39;97763.03;;;8.63;87.62
24962;BME280;12992;50.884;13.668;2023-05-09T05:09:05;97773.13;;;8.86;88.70
24962;BME280;12992;50.884;13.668;2023-05-09T05:11:30;97773.88;;;9.40;84.46
24962;BME280;12992;50.884;13.668;2023-05-09T05:13:56;97733.59;;;9.88;76.13
24962;BME280;12992;50.884;13.668;2023-05-09T05:16:21;97779.50;;;10.82;72.45
24962;BME280;12992;50.884;13.668;2023-05-09T05:18:47;97762.94;;;11.95;65.65
24962;BME280;12992;50.884;13.668;2023-05-09T05:21:13;97780.00;;;13.10;68.31
24962;BME280;12992;50.884;13.668;2023-05-09T05:23:42;97733.38;;;13.69;62.69
24962;BME280;12992;50.884;13.668;2023-05-09T05:26:08;97704.34;;;13.68;59.75
24962;BME280;12992;50.884;13.668;2023-05-09T05:28:34;97667.09;;;12.77;59.98
24962;BME280;12992;50.884;13.668;2023-05-09T05:31:00;97681.38;;;12.84;63.29
24962;BME280;12992;50.884;13.668;2023-05-09T05:33:25;97605.34;;;10.97;64.68
24962;BME280;12992;50.884;13.668;2023-05-09T05:35:51;97618.69;;;10.27;66.43
24962;BME280;12992;50.884;13.668;2023-05-09T05:38:16;97639.03;;;10.24;67.22
24962;BME280;12992;50.884;13.668;2023-05-09T05:40:46;97637.69;;;10.10;72.36
24962;BME280;12992;50.884;13.668;2023-05-09T05:43:11;97653.50;;;10.13;71.57
24962;BME280;12992;50.884;13.668;2023-05-09T05:45:37;97662.81;;;10.29;73.10
24962;BME280;12992;50.884;13.668;2023-05-09T05:48:05;97654.97;;;10.32;68.99
24962;BME280;12992;50.884;13.668;2023-05-09T05:50:31;97666.69;;;10.49;68.47
24962;BME280;12992;50.884;13.668;2023-05-09T05:52:56;97660.84;;;10.58;71.01
24962;BME280;12992;50.884;13.668;2023-05-09T05:55:22;97657.06;;;10.59;73.02
24962;BME280;12992;50.884;13.668;2023-05-09T05:57:47;97658.06;;;10.69;69.96
24962;BME280;12992;50.884;13.668;2023-05-09T06:00:14;97628.31;;;10.68;63.54
24962;BME280;12992;50.884;13.668;2023-05-09T06:02:44;97623.69;;;10.68;62.64
24962;BME280;12992;50.884;13.668;2023-05-09T06:05:15;97635.59;;;10.79;63.43
24962;BME280;12992;50.884;13.668;2023-05-09T06:07:41;97640.69;;;10.92;65.16
24962;BME280;12992;50.884;13.668;2023-05-09T06:10:08;97652.06;;;11.06;68.65
24962;BME280;12992;50.884;13.668;2023-05-09T06:12:33;97656.66;;;11.22;68.85
24962;BME280;12992;50.884;13.668;2023-05-09T06:14:59;97632.88;;;11.18;66.61
24962;BME280;12992;50.884;13.668;2023-05-09T06:17:25;97640.66;;;11.09;69.35
24962;BME280;12992;50.884;13.668;2023-05-09T06:19:50;97645.56;;;11.29;69.30
24962;BME280;12992;50.884;13.668;2023-05-09T06:22:17;97654.78;;;11.45;65.23
24962;BME280;12992;50.884;13.668;2023-05-09T06:24:42;97654.59;;;11.51;69.44
24962;BME280;12992;50.884;13.668;2023-05-09T06:27:07;97660.28;;;11.72;65.15
24962;BME280;12992;50.884;13.668;2023-05-09T06:29:33;97668.66;;;12.09;65.50
24962;BME280;12992;50.884;13.668;2023-05-09T06:31:59;97645.94;;;12.03;67.68
24962;BME280;12992;50.884;13.668;2023-05-09T06:34:24;97659.03;;;12.28;63.15
24962;BME280;12992;50.884;13.668;2023-05-09T06:36:49;97675.47;;;12.65;62.69
24962;BME280;12992;50.884;13.668;2023-05-09T06:39:15;97636.84;;;12.52;61.02
24962;BME280;12992;50.884;13.668;2023-05-09T06:41:40;97649.00;;;12.71;64.19
24962;BME280;12992;50.884;13.668;2023-05-09T06:44:05;97651.22;;;12.74;65.74
24962;BME280;12992;50.884;13.668;2023-05-09T06:46:31;97647.69;;;12.79;65.67
24962;BME280;12992;50.884;13.668;2023-05-09T06:48:56;97650.03;;;12.97;64.55
24962;BME280;12992;50.884;13.668;2023-05-09T06:51:22;97640.84;;;13.13;61.29
24962;BME280;12992;50.884;13.668;2023-05-09T06:53:47;97634.00;;;13.11;61.72
24962;BME280;12992;50.884;13.668;2023-05-09T06:56:12;97635.63;;;13.12;64.97
24962;BME280;12992;50.884;13.668;2023-05-09T06:58:38;97639.81;;;13.19;64.61
24962;BME280;12992;50.884;13.668;2023-05-09T07:01:03;97626.13;;;13.19;65.69
24962;BME280;12992;50.884;13.668;2023-05-09T07:03:29;97585.66;;;12.74;67.20
24962;BME280;12992;50.884;13.668;2023-05-09T07:05:54;97601.28;;;12.84;64.34
24962;BME280;12992;50.884;13.668;2023-05-09T07:08:23;97605.72;;;12.90;65.66
24962;BME280;12992;50.884;13.668;2023-05-09T07:10:48;97595.59;;;12.90;66.86
24962;BME280;12992;50.884;13.668;2023-05-09T07:13:13;97589.72;;;12.71;65.43
24962;BME280;12992;50.884;13.668;2023-05-09T07:15:39;97590.63;;;12.87;62.33
24962;BME280;12992;50.884;13.668;2023-05-09T07:18:04;97599.75;;;13.03;63.44
24962;BME280;12992;50.884;13.668;2023-05-09T07:20:29;97629.28;;;13.48;62.31
24962;BME280;12992;50.884;13.668;2023-05-09T07:22:54;97632.91;;;13.64;64.38
24962;BME280;12992;50.884;13.668;2023-05-09T07:25:22;97620.13;;;13.85;58.64
24962;BME280;12992;50.884;13.668;2023-05-09T07:27:47;97596.03;;;13.92;56.32
24962;BME280;12992;50.884;13.668;2023-05-09T07:30:13;97584.19;;;13.61;59.28
24962;BME280;12992;50.884;13.668;2023-05-09T07:32:38;97598.50;;;13.83;57.92
24962;BME280;12992;50.884;13.668;2023-05-09T07:35:04;97594.72;;;14.05;56.72
24962;BME280;12992;50.884;13.668;2023-05-09T07:37:30;97588.41;;;14.09;57.23
24962;BME280;12992;50.884;13.668;2023-05-09T07:39:55;97544.28;;;13.70;58.43
24962;BME280;12992;50.884;13.668;2023-05-09T07:42:20;97582.38;;;14.12;59.01
24962;BME280;12992;50.884;13.668;2023-05-09T07:44:46;97574.44;;;14.21;57.46
24962;BME280;12992;50.884;13.668;2023-05-09T07:47:11;97575.53;;;14.30;57.31
24962;BME280;12992;50.884;13.668;2023-05-09T07:49:37;97559.94;;;14.36;56.61
24962;BME280;12992;50.884;13.668;2023-05-09T07:52:02;97584.59;;;14.87;56.35
24962;BME280;12992;50.884;13.668;2023-05-09T07:54:27;97579.06;;;15.07;55.99
24962;BME280;12992;50.884;13.668;2023-05-09T07:56:53;97599.44;;;15.71;56.81
24962;BME280;12992;50.884;13.668;2023-05-09T07:59:19;97583.75;;;15.81;56.29
24962;BME280;12992;50.884;13.668;2023-05-09T08:01:44;97583.88;;;16.05;54.03
24962;BME280;12992;50.884;13.668;2023-05-09T08:04:10;97549.88;;;15.96;55.01
24962;BME280;12992;50.884;13.668;2023-05-09T08:06:35;97578.56;;;16.19;53.96
24962;BME280;12992;50.884;13.668;2023-05-09T08:09:01;97524.59;;;15.99;53.78
24962;BME280;12992;50.884;13.668;2023-05-09T08:11:26;97566.16;;;16.22;53.62
24962;BME280;12992;50.884;13.668;2023-05-09T08:13:52;97533.44;;;15.91;55.42
24962;BME280;12992;50.884;13.668;2023-05-09T08:16:17;97547.22;;;16.20;52.99
24962;BME280;12992;50.884;13.668;2023-05-09T08:18:43;97547.47;;;16.24;55.67
24962;BME280;12992;50.884;13.668;2023-05-09T08:21:09;97568.34;;;16.59;52.87
24962;BME280;12992;50.884;13.668;2023-05-09T08:23:34;97591.81;;;17.57;50.74
24962;BME280;12992;50.884;13.668;2023-05-09T08:26:00;97617.53;;;18.71;47.47
24962;BME280;12992;50.884;13.668;2023-05-09T08:28:25;97637.06;;;19.53;48.27
24962;BME280;12992;50.884;13.668;2023-05-09T08:30:53;97675.00;;;21.25;46.82
24962;BME280;12992;50.884;13.668;2023-05-09T08:33:18;97651.63;;;22.10;43.02
24962;BME280;12992;50.884;13.668;2023-05-09T08:35:44;97600.25;;;22.21;43.51
24962;BME280;12992;50.884;13.668;2023-05-09T08:38:10;97646.28;;;23.26;41.10
24962;BME280;12992;50.884;13.668;2023-05-09T08:40:36;97589.47;;;23.06;39.67
24962;BME280;12992;50.884;13.668;2023-05-09T08:43:05;97587.94;;;23.17;41.68
24962;BME280;12992;50.884;13.668;2023-05-09T08:45:34;97416.66;;;21.59;43.52
24962;BME280;12992;50.884;13.668;2023-05-09T08:48:03;97544.56;;;22.44;42.60
24962;BME280;12992;50.884;13.668;2023-05-09T08:50:29;97599.03;;;24.02;40.90
24962;BME280;12992;50.884;13.668;2023-05-09T08:52:55;97540.69;;;24.15;37.85
24962;BME280;12992;50.884;13.668;2023-05-09T08:55:20;97539.66;;;24.19;38.24
24962;BME280;12992;50.884;13.668;2023-05-09T08:57:46;97542.56;;;24.02;40.09
24962;BME280;12992;50.884;13.668;2023-05-09T09:00:11;97482.88;;;23.40;41.55
24962;BME280;12992;50.884;13.668;2023-05-09T09:02:41;97446.84;;;22.12;40.83
24962;BME280;12992;50.884;13.668;2023-05-09T09:05:06;97408.13;;;22.33;40.88
24962;BME280;12992;50.884;13.668;2023-05-09T09:07:35;97434.47;;;22.18;40.28
24962;BME280;12992;50.884;13.668;2023-05-09T09:10:03;97378.34;;;21.61;41.29
24962;BME280;12992;50.884;13.668;2023-05-09T09:12:29;97501.28;;;22.69;40.84
24962;BME280;12992;50.884;13.668;2023-05-09T09:14:55;97444.19;;;22.42;40.58
24962;BME280;12992;50.884;13.668;2023-05-09T09:17:24;97503.06;;;23.58;37.36
24962;BME280;12992;50.884;13.668;2023-05-09T09:19:54;97452.19;;;23.37;36.61
24962;BME280;12992;50.884;13.668;2023-05-09T09:22:22;97504.72;;;24.10;36.61
24962;BME280;12992;50.884;13.668;2023-05-09T09:24:49;97483.84;;;24.04;35.67
24962;BME280;12992;50.884;13.668;2023-05-09T09:27:14;97451.25;;;24.04;38.34
24962;BME280;12992;50.884;13.668;2023-05-09T09:29:40;97423.22;;;23.38;37.02
24962;BME280;12992;50.884;13.668;2023-05-09T09:32:06;97516.41;;;24.45;37.00
24962;BME280;12992;50.884;13.668;2023-05-09T09:34:31;97368.56;;;22.62;39.53
24962;BME280;12992;50.884;13.668;2023-05-09T09:36:57;97388.25;;;22.31;41.53
24962;BME280;12992;50.884;13.668;2023-05-09T09:39:23;97475.56;;;23.65;37.96
24962;BME280;12992;50.884;13.668;2023-05-09T09:41:48;97492.50;;;24.44;36.79
24962;BME280;12992;50.884;13.668;2023-05-09T09:44:18;97473.09;;;24.80;35.83
24962;BME280;12992;50.884;13.668;2023-05-09T09:46:49;97425.47;;;23.95;36.01
24962;BME280;12992;50.884;13.668;2023-05-09T09:49:22;97425.19;;;23.37;39.12
24962;BME280;12992;50.884;13.668;2023-05-09T09:51:53;97362.84;;;23.26;36.78
24962;BME280;12992;50.884;13.668;2023-05-09T09:54:18;97406.50;;;23.26;37.29
24962;BME280;12992;50.884;13.668;2023-05-09T09:56:48;97384.59;;;22.95;39.78
24962;BME280;12992;50.884;13.668;2023-05-09T09:59:22;97304.88;;;22.57;37.69
24962;BME280;12992;50.884;13.668;2023-05-09T10:01:59;97360.03;;;22.67;38.32
24962;BME280;12992;50.884;13.668;2023-05-09T10:04:28;97374.47;;;22.43;40.01
24962;BME280;12992;50.884;13.668;2023-05-09T10:06:55;97432.28;;;23.56;37.91
24962;BME280;12992;50.884;13.668;2023-05-09T10:09:22;97334.47;;;22.53;37.70
24962;BME280;12992;50.884;13.668;2023-05-09T10:11:49;97413.00;;;23.80;38.99
24962;BME280;12992;50.884;13.668;2023-05-09T10:14:18;97390.41;;;23.61;35.98
24962;BME280;12992;50.884;13.668;2023-05-09T10:16:46;97392.31;;;23.69;36.88
24962;BME280;12992;50.884;13.668;2023-05-09T10:19:12;97376.50;;;23.61;38.03
24962;BME280;12992;50.884;13.668;2023-05-09T10:21:39;97434.00;;;24.11;38.71
24962;BME280;12992;50.884;13.668;2023-05-09T10:24:06;97440.78;;;25.25;35.14
24962;BME280;12992;50.884;13.668;2023-05-09T10:26:36;97431.28;;;25.38;36.29
24962;BME280;12992;50.884;13.668;2023-05-09T10:29:05;97357.16;;;24.64;36.31
24962;BME280;12992;50.884;13.668;2023-05-09T10:31:33;97350.78;;;24.18;36.47
24962;BME280;12992;50.884;13.668;2023-05-09T10:34:04;97436.13;;;25.41;37.32
24962;BME280;12992;50.884;13.668;2023-05-09T10:36:32;97390.69;;;25.53;33.98
24962;BME280;12992;50.884;13.668;2023-05-09T10:38:57;97388.06;;;25.32;36.01
24962;BME280;12992;50.884;13.668;2023-05-09T10:41:23;97402.91;;;25.73;34.28
24962;BME280;12992;50.884;13.668;2023-05-09T10:43:50;97376.31;;;25.38;34.19
24962;BME280;12992;50.884;13.668;2023-05-09T10:46:15;97309.47;;;24.53;35.43
24962;BME280;12992;50.884;13.668;2023-05-09T10:48:41;97377.25;;;25.30;34.25
24962;BME280;12992;50.884;13.668;2023-05-09T10:51:08;97280.53;;;24.21;33.96
24962;BME280;12992;50.884;13.668;2023-05-09T10:53:44;97326.41;;;24.97;32.78
24962;BME280;12992;50.884;13.668;2023-05-09T10:56:30;97321.75;;;24.52;35.26
24962;BME280;12992;50.884;13.668;2023-05-09T10:58:59;97320.97;;;24.76;36.03
24962;BME280;12992;50.884;13.668;2023-05-09T11:03:57;97300.88;;;24.95;35.78
24962;BME280;12992;50.884;13.668;2023-05-09T11:09:26;97258.22;;;22.80;37.76
24962;BME280;12992;50.884;13.668;2023-05-09T11:11:54;97303.41;;;23.18;35.76
24962;BME280;12992;50.884;13.668;2023-05-09T11:14:43;97304.56;;;24.38;35.41
24962;BME280;12992;50.884;13.668;2023-05-09T11:22:13;97268.50;;;24.53;34.20
24962;BME280;12992;50.884;13.668;2023-05-09T11:24:43;97280.34;;;24.75;33.86
24962;BME280;12992;50.884;13.668;2023-05-09T11:27:14;97237.06;;;22.67;36.72
24962;BME280;12992;50.884;13.668;2023-05-09T11:29:45;97294.81;;;23.86;34.61
24962;BME280;12992;50.884;13.668;2023-05-09T11:32:12;97232.53;;;22.92;36.07
24962;BME280;12992;50.884;13.668;2023-05-09T11:34:42;97251.69;;;22.55;41.44
24962;BME280;12992;50.884;13.668;2023-05-09T11:37:09;97289.53;;;24.06;34.62
24962;BME280;12992;50.884;13.668;2023-05-09T11:39:54;97217.53;;;23.05;36.85
24962;BME280;12992;50.884;13.668;2023-05-09T11:42:22;97236.81;;;22.80;37.93
24962;BME280;12992;50.884;13.668;2023-05-09T11:44:48;97244.38;;;23.01;36.93
24962;BME280;12992;50.884;13.668;2023-05-09T11:47:14;97235.84;;;22.85;38.06
24962;BME280;12992;50.884;13.668;2023-05-09T11:49:43;97249.69;;;23.48;37.51
24962;BME280;12992;50.884;13.668;2023-05-09T11:52:08;97241.78;;;24.04;35.64
24962;BME280;12992;50.884;13.668;2023-05-09T11:54:38;97218.31;;;23.68;34.45
24962;BME280;12992;50.884;13.668;2023-05-09T11:57:04;97230.22;;;23.48;36.05
24962;BME280;12992;50.884;13.668;2023-05-09T11:59:30;97212.66;;;22.81;37.32
24962;BME280;12992;50.884;13.668;2023-05-09T12:01:56;97226.38;;;23.61;35.40
24962;BME280;12992;50.884;13.668;2023-05-09T12:04:21;97213.22;;;23.49;35.31
24962;BME280;12992;50.884;13.668;2023-05-09T12:06:47;97253.31;;;24.63;35.52
24962;BME280;12992;50.884;13.668;2023-05-09T12:09:13;97210.03;;;24.05;34.88
24962;BME280;12992;50.884;13.668;2023-05-09T12:11:49;97203.59;;;23.46;35.48
24962;BME280;12992;50.884;13.668;2023-05-09T12:14:32;97203.84;;;23.21;35.12
24962;BME280;12992;50.884;13.668;2023-05-09T12:16:58;97199.47;;;22.99;35.77
24962;BME280;12992;50.884;13.668;2023-05-09T12:19:25;97187.69;;;23.02;35.80
24962;BME280;12992;50.884;13.668;2023-05-09T12:22:03;97197.22;;;22.71;35.38
24962;BME280;12992;50.884;13.668;2023-05-09T12:24:31;97181.94;;;22.36;36.13
24962;BME280;12992;50.884;13.668;2023-05-09T12:26:59;97175.22;;;22.07;35.62
24962;BME280;12992;50.884;13.668;2023-05-09T12:29:25;97174.63;;;21.93;35.62
24962;BME280;12992;50.884;13.668;2023-05-09T12:31:52;97192.22;;;21.88;36.75
24962;BME280;12992;50.884;13.668;2023-05-09T12:34:18;97187.44;;;22.06;36.13
24962;BME280;12992;50.884;13.668;2023-05-09T12:36:44;97207.16;;;22.72;37.17
24962;BME280;12992;50.884;13.668;2023-05-09T12:39:19;97178.41;;;22.26;37.81
24962;BME280;12992;50.884;13.668;2023-05-09T12:41:49;97186.84;;;22.30;37.29
24962;BME280;12992;50.884;13.668;2023-05-09T12:44:24;97167.72;;;21.99;35.58
24962;BME280;12992;50.884;13.668;2023-05-09T12:47:03;97186.22;;;22.24;36.91
24962;BME280;12992;50.884;13.668;2023-05-09T12:49:30;97192.88;;;22.82;36.29
24962;BME280;12992;50.884;13.668;2023-05-09T12:51:57;97152.06;;;22.03;36.21
24962;BME280;12992;50.884;13.668;2023-05-09T12:54:27;97185.28;;;22.20;38.20
24962;BME280;12992;50.884;13.668;2023-05-09T12:56:55;97201.75;;;22.97;37.49
24962;BME280;12992;50.884;13.668;2023-05-09T12:59:25;97157.78;;;21.98;37.27
24962;BME280;12992;50.884;13.668;2023-05-09T13:01:58;97154.50;;;22.04;38.81
24962;BME280;12992;50.884;13.668;2023-05-09T13:04:25;97176.28;;;22.53;39.20
24962;BME280;12992;50.884;13.668;2023-05-09T13:06:53;97151.91;;;22.79;35.36
24962;BME280;12992;50.884;13.668;2023-05-09T13:09:20;97121.69;;;22.06;35.22
24962;BME280;12992;50.884;13.668;2023-05-09T13:11:46;97120.66;;;21.43;37.32